createdAt,value
2024-01-07T00:00:32.312Z,58.63
2024-01-07T00:02:58.945Z,58.05
2024-01-07T00:05:25.606Z,56.47
2024-01-07T00:07:52.955Z,55.38
2024-01-07T00:10:19.567Z,53.47
2024-01-07T00:12:46.188Z,55.30
2024-01-07T00:15:12.723Z,52.85
2024-01-07T00:17:39.357Z,51.80
2024-01-07T00:20:07.109Z,50.50
2024-01-07T00:22:33.740Z,50.33
2024-01-07T00:25:00.438Z,50.13
2024-01-07T00:27:27.049Z,49.80
2024-01-07T00:29:53.676Z,48.58
2024-01-07T00:32:20.239Z,46.95
2024-01-07T00:34:46.876Z,46.28
2024-01-07T00:37:13.577Z,44.67
2024-01-07T00:39:40.219Z,46.35
2024-01-07T00:42:06.858Z,45.03
2024-01-07T00:44:33.422Z,43.38
2024-01-07T00:47:00.002Z,45.67
2024-01-07T00:49:27.196Z,45.10
2024-01-07T00:51:53.835Z,40.65
2024-01-07T00:54:20.400Z,40.28
2024-01-07T00:56:47.022Z,39.15
2024-01-07T00:59:13.580Z,40.90
2024-01-07T01:01:40.302Z,38.55
2024-01-07T01:04:07.070Z,36.80
2024-01-07T01:06:33.750Z,37.15
2024-01-07T01:09:00.319Z,36.92
2024-01-07T01:11:26.902Z,35.72
2024-01-07T01:13:53.958Z,37.13
2024-01-07T01:16:23.570Z,35.97
2024-01-07T01:18:53.025Z,35.38
2024-01-07T01:21:19.627Z,32.47
2024-01-07T01:23:47.966Z,32.40
2024-01-07T01:26:14.649Z,31.23
2024-01-07T01:28:41.188Z,31.52
2024-01-07T01:31:07.859Z,33.25
2024-01-07T01:33:34.620Z,31.40
2024-01-07T01:36:05.731Z,31.13
2024-01-07T01:38:32.306Z,30.50
2024-01-07T01:40:58.878Z,27.95
2024-01-07T01:43:26.855Z,27.02
2024-01-07T01:45:54.632Z,27.05
2024-01-07T01:48:21.529Z,28.95
2024-01-07T01:50:49.189Z,27.25
2024-01-07T01:53:18.600Z,27.55
2024-01-07T01:55:45.211Z,27.05
2024-01-07T01:58:13.982Z,24.63
2024-01-07T02:00:41.860Z,25.90
2024-01-07T02:03:08.601Z,25.55
2024-01-07T02:05:35.297Z,25.02
2024-01-07T02:08:02.102Z,22.27
2024-01-07T02:10:35.218Z,23.38
2024-01-07T02:13:01.958Z,22.50
2024-01-07T02:15:28.568Z,22.77
2024-01-07T02:17:55.485Z,20.90
2024-01-07T02:20:22.192Z,21.00
2024-01-07T02:22:49.210Z,21.70
2024-01-07T02:25:15.808Z,21.08
2024-01-07T02:27:42.421Z,21.02
2024-01-07T02:30:09.433Z,18.33
2024-01-07T02:32:37.208Z,19.27
2024-01-07T02:35:04.050Z,19.30
2024-01-07T02:37:30.931Z,19.33
2024-01-07T02:40:01.396Z,19.40
2024-01-07T02:42:29.136Z,19.00
2024-01-07T02:44:55.713Z,18.40
2024-01-07T02:47:22.334Z,19.08
2024-01-07T02:49:48.923Z,19.77
2024-01-07T02:52:15.605Z,17.35
2024-01-07T02:54:42.267Z,15.95
2024-01-07T02:57:08.863Z,15.85
2024-01-07T02:59:36.097Z,16.88
2024-01-07T03:02:02.753Z,15.70
2024-01-07T03:04:29.457Z,15.40
2024-01-07T03:06:56.027Z,16.08
2024-01-07T03:09:22.600Z,14.93
2024-01-07T03:11:49.111Z,14.45
2024-01-07T03:14:18.024Z,15.88
2024-01-07T03:16:44.624Z,14.52
2024-01-07T03:19:11.496Z,14.48
2024-01-07T03:21:38.174Z,14.93
2024-01-07T03:24:04.971Z,14.57
2024-01-07T03:26:34.471Z,14.48
2024-01-07T03:29:04.298Z,12.55
2024-01-07T03:31:31.187Z,14.23
2024-01-07T03:33:58.543Z,12.60
2024-01-07T03:36:25.260Z,13.20
2024-01-07T03:38:51.930Z,12.38
2024-01-07T03:41:19.648Z,11.23
2024-01-07T03:43:47.602Z,11.65
2024-01-07T03:46:14.793Z,12.02
2024-01-07T03:48:42.396Z,12.07
2024-01-07T03:51:09.173Z,12.05
2024-01-07T03:53:35.757Z,12.23
2024-01-07T03:56:02.421Z,10.90
2024-01-07T03:58:29.014Z,10.75
2024-01-07T04:00:55.665Z,11.05
2024-01-07T04:03:22.307Z,11.73
2024-01-07T04:05:51.317Z,10.77
2024-01-07T04:08:17.899Z,10.45
2024-01-07T04:10:44.503Z,9.52
2024-01-07T04:13:11.262Z,10.80
2024-01-07T04:15:38.027Z,9.95
2024-01-07T04:18:05.917Z,8.15
2024-01-07T04:20:32.706Z,10.65
2024-01-07T04:22:59.473Z,9.48
2024-01-07T04:25:26.138Z,9.20
2024-01-07T04:27:52.949Z,10.07
2024-01-07T04:30:19.749Z,9.18
2024-01-07T04:32:46.648Z,8.80
2024-01-07T04:35:13.410Z,8.65
2024-01-07T04:37:40.006Z,8.07
2024-01-07T04:40:07.254Z,9.65
2024-01-07T04:42:33.921Z,9.40
2024-01-07T04:45:00.717Z,8.20
2024-01-07T04:47:31.780Z,8.52
2024-01-07T04:49:59.122Z,8.38
2024-01-07T04:52:26.029Z,6.85
2024-01-07T04:54:53.957Z,7.28
2024-01-07T04:57:20.902Z,8.55
2024-01-07T04:59:49.797Z,7.13
2024-01-07T05:02:16.578Z,8.02
2024-01-07T05:04:43.582Z,6.47
2024-01-07T05:07:10.367Z,7.25
2024-01-07T05:09:36.957Z,7.05
2024-01-07T05:12:03.796Z,8.65
2024-01-07T05:14:30.354Z,8.27
2024-01-07T05:16:57.091Z,7.32
2024-01-07T05:19:24.255Z,7.18
2024-01-07T05:21:50.986Z,6.45
2024-01-07T05:24:17.558Z,6.80
2024-01-07T05:26:45.535Z,6.55
2024-01-07T05:29:13.217Z,6.20
2024-01-07T05:31:41.187Z,6.25
2024-01-07T05:34:08.226Z,6.78
2024-01-07T05:36:35.151Z,6.15
2024-01-07T05:39:01.764Z,6.68
2024-01-07T05:41:28.349Z,5.93
2024-01-07T05:43:55.081Z,8.02
2024-01-07T05:46:21.667Z,6.57
2024-01-07T05:48:49.841Z,5.85
2024-01-07T05:51:17.233Z,5.50
2024-01-07T05:53:45.072Z,5.75
2024-01-07T05:56:11.637Z,6.63
2024-01-07T05:58:38.245Z,5.88
2024-01-07T06:01:05.051Z,5.65
2024-01-07T06:03:31.991Z,5.30
2024-01-07T06:05:59.563Z,5.65
2024-01-07T06:08:29.628Z,5.30
2024-01-07T06:10:56.241Z,5.85
2024-01-07T06:13:22.822Z,7.97
2024-01-07T06:15:49.482Z,5.75
2024-01-07T06:18:16.219Z,5.30
2024-01-07T06:20:42.857Z,5.93
2024-01-07T06:23:09.544Z,6.82
2024-01-07T06:25:36.075Z,4.47
2024-01-07T06:28:02.721Z,5.20
2024-01-07T06:30:29.393Z,5.22
2024-01-07T06:32:56.799Z,4.38
2024-01-07T06:35:23.394Z,4.20
2024-01-07T06:37:50.331Z,4.00
2024-01-07T06:40:17.080Z,4.40
2024-01-07T06:42:45.091Z,6.05
2024-01-07T06:45:11.968Z,4.47
2024-01-07T06:47:39.086Z,5.13
2024-01-07T06:50:06.861Z,4.22
2024-01-07T06:52:33.729Z,6.13
2024-01-07T06:55:00.419Z,4.88
2024-01-07T06:57:27.024Z,3.67
2024-01-07T06:59:54.016Z,3.97
2024-01-07T07:02:22.643Z,4.97
2024-01-07T07:04:49.657Z,4.15
2024-01-07T07:07:16.464Z,5.30
2024-01-07T07:09:43.081Z,4.00
2024-01-07T07:12:09.874Z,5.50
2024-01-07T07:14:36.388Z,4.78
2024-01-07T07:17:02.966Z,5.18
2024-01-07T07:19:29.846Z,4.47
2024-01-07T07:21:56.446Z,4.95
2024-01-07T07:24:23.418Z,5.93
2024-01-07T07:26:49.962Z,6.53
2024-01-07T07:29:16.532Z,7.53
2024-01-07T07:31:43.113Z,7.57
2024-01-07T07:34:10.652Z,8.65
2024-01-07T07:36:37.306Z,8.70
2024-01-07T07:39:03.928Z,9.82
2024-01-07T07:41:30.461Z,9.88
2024-01-07T07:43:57.091Z,12.73
2024-01-07T07:46:23.735Z,12.20
2024-01-07T07:48:50.455Z,13.57
2024-01-07T07:51:17.080Z,14.30
2024-01-07T07:53:43.632Z,15.00
2024-01-07T07:56:10.168Z,13.55
2024-01-07T07:58:36.714Z,15.27
2024-01-07T08:01:03.536Z,16.25
2024-01-07T08:03:30.437Z,16.17
2024-01-07T08:05:57.105Z,16.65
2024-01-07T08:08:23.704Z,15.52
2024-01-07T08:10:50.297Z,16.70
2024-01-07T08:13:17.087Z,19.75
2024-01-07T08:15:43.879Z,19.20
2024-01-07T08:18:10.581Z,20.52
2024-01-07T08:20:37.179Z,19.98
2024-01-07T08:23:03.955Z,20.52
2024-01-07T08:25:30.632Z,21.10
2024-01-07T08:27:57.390Z,22.15
2024-01-07T08:30:24.755Z,21.95
2024-01-07T08:32:51.463Z,22.20
2024-01-07T08:35:20.245Z,21.02
2024-01-07T08:37:47.466Z,22.38
2024-01-07T08:40:14.967Z,23.17
2024-01-07T08:42:42.248Z,23.25
2024-01-07T08:45:09.280Z,23.70
2024-01-07T08:47:40.876Z,23.63
2024-01-07T08:52:36.617Z,22.30
2024-01-07T08:55:06.932Z,23.17
2024-01-07T08:57:34.232Z,27.60
2024-01-07T09:00:00.923Z,25.23
2024-01-07T09:02:27.622Z,25.80
2024-01-07T09:04:54.173Z,26.85
2024-01-07T09:07:20.730Z,28.70
2024-01-07T09:09:47.270Z,30.67
2024-01-07T09:12:13.887Z,27.80
2024-01-07T09:14:40.634Z,30.65
2024-01-07T09:17:07.214Z,28.92
2024-01-07T09:19:33.998Z,41.13
2024-01-07T09:22:00.777Z,43.70
2024-01-07T09:24:27.549Z,46.50
2024-01-07T09:26:54.184Z,44.83
2024-01-07T09:29:21.336Z,42.28
2024-01-07T09:31:48.068Z,41.22
2024-01-07T09:34:15.950Z,44.45
2024-01-07T09:36:42.656Z,43.00
2024-01-07T09:39:10.573Z,44.33
2024-01-07T09:41:37.348Z,44.20
2024-01-07T09:44:04.728Z,45.67
2024-01-07T09:46:33.301Z,47.85
2024-01-07T09:49:00.006Z,46.65
2024-01-07T09:51:30.226Z,50.63
2024-01-07T09:54:03.391Z,48.47
2024-01-07T09:56:40.482Z,47.63
2024-01-07T09:59:08.027Z,54.42
2024-01-07T10:01:36.851Z,49.92
2024-01-07T10:04:03.776Z,52.50
2024-01-07T10:06:30.431Z,54.03
2024-01-07T10:08:56.990Z,55.20
2024-01-07T10:11:23.888Z,54.97
2024-01-07T10:13:52.402Z,56.65
2024-01-07T10:16:19.101Z,50.83
2024-01-07T10:18:45.986Z,54.72
2024-01-07T10:21:12.673Z,59.97
2024-01-07T10:23:39.270Z,60.08
2024-01-07T10:26:12.234Z,53.67
2024-01-07T10:28:46.710Z,63.80
2024-01-07T10:31:13.550Z,64.40
2024-01-07T10:33:41.843Z,64.35
2024-01-07T10:36:08.757Z,65.40
2024-01-07T10:38:36.398Z,67.13
2024-01-07T10:41:06.028Z,70.57
2024-01-07T10:43:36.985Z,64.65
2024-01-07T10:46:04.656Z,66.70
2024-01-07T10:48:36.036Z,65.75
2024-01-07T10:51:03.814Z,66.70
2024-01-07T10:53:38.187Z,65.28
2024-01-07T10:56:06.086Z,64.90
2024-01-07T10:58:35.240Z,69.13
2024-01-07T11:01:05.019Z,70.13
2024-01-07T11:03:41.976Z,69.90
2024-01-07T11:06:21.323Z,66.20
2024-01-07T11:08:57.161Z,64.15
2024-01-07T11:11:28.579Z,65.68
2024-01-07T11:13:57.936Z,64.18
2024-01-07T11:16:46.168Z,64.72
2024-01-07T11:19:16.203Z,60.53
2024-01-07T11:21:42.934Z,60.97
2024-01-07T11:24:09.513Z,63.38
2024-01-07T11:26:36.074Z,59.65
2024-01-07T11:29:02.711Z,56.95
2024-01-07T11:31:50.395Z,59.00
2024-01-07T11:34:47.665Z,58.35
2024-01-07T11:37:14.883Z,54.33
2024-01-07T11:39:46.121Z,55.38
2024-01-07T11:42:13.500Z,53.25
2024-01-07T11:44:49.844Z,51.70
2024-01-07T11:47:20.380Z,50.97
2024-01-07T11:49:47.350Z,49.80
2024-01-07T11:52:14.626Z,54.13
2024-01-07T11:54:41.664Z,51.03
2024-01-07T11:57:09.172Z,54.78
2024-01-07T11:59:35.973Z,52.20
2024-01-07T12:02:05.513Z,48.35
2024-01-07T12:04:32.866Z,43.63
2024-01-07T12:06:59.780Z,48.85
2024-01-07T12:09:26.869Z,44.05
2024-01-07T12:11:54.090Z,49.80
2024-01-07T12:14:21.245Z,45.45
2024-01-07T12:16:47.958Z,43.38
2024-01-07T12:19:14.785Z,47.42
2024-01-07T12:21:41.551Z,45.97
2024-01-07T12:24:08.543Z,47.83
2024-01-07T12:26:35.161Z,47.15
2024-01-07T12:29:04.972Z,44.88
2024-01-07T12:31:33.087Z,41.75
2024-01-07T12:34:00.113Z,40.67
2024-01-07T12:36:27.383Z,38.97
2024-01-07T12:38:57.031Z,41.70
2024-01-07T12:41:26.874Z,34.67
2024-01-07T12:43:53.594Z,35.97
2024-01-07T12:46:20.347Z,34.65
2024-01-07T12:48:47.270Z,38.03
2024-01-07T12:51:14.132Z,38.72
2024-01-07T12:53:40.729Z,41.97
2024-01-07T12:56:07.589Z,36.63
2024-01-07T12:58:34.252Z,34.55
2024-01-07T13:01:01.133Z,33.88
2024-01-07T13:03:28.258Z,36.42
2024-01-07T13:05:55.028Z,33.83
2024-01-07T13:08:23.676Z,36.72
2024-01-07T13:10:50.691Z,33.15
2024-01-07T13:13:17.440Z,33.42
2024-01-07T13:15:44.671Z,32.20
2024-01-07T13:18:13.425Z,32.22
2024-01-07T13:20:43.391Z,33.17
2024-01-07T13:23:10.065Z,30.60
2024-01-07T13:25:36.677Z,29.52
2024-01-07T13:28:03.968Z,31.25
2024-01-07T13:30:30.733Z,32.78
2024-01-07T13:33:01.677Z,30.95
2024-01-07T13:35:29.683Z,31.48
2024-01-07T13:37:56.249Z,29.83
2024-01-07T13:40:22.881Z,29.48
2024-01-07T13:42:52.286Z,26.30
2024-01-07T13:45:21.766Z,29.83
2024-01-07T13:47:48.635Z,27.90
2024-01-07T13:50:15.546Z,28.38
2024-01-07T13:52:42.207Z,25.70
2024-01-07T13:55:12.369Z,26.50
2024-01-07T13:57:39.845Z,24.75
2024-01-07T14:00:10.145Z,23.92
2024-01-07T14:02:41.638Z,22.38
2024-01-07T14:05:10.072Z,22.90
2024-01-07T14:07:36.933Z,21.63
2024-01-07T14:10:04.823Z,22.05
2024-01-07T14:12:32.205Z,19.60
2024-01-07T14:15:00.070Z,21.13
2024-01-07T14:17:27.224Z,20.55
2024-01-07T14:19:54.308Z,19.50
2024-01-07T14:22:22.247Z,20.33
2024-01-07T14:24:49.786Z,17.60
2024-01-07T14:27:17.058Z,18.70
2024-01-07T14:29:44.504Z,17.42
2024-01-07T14:32:11.913Z,18.35
2024-01-07T14:34:42.785Z,18.98
2024-01-07T14:37:13.197Z,17.00
2024-01-07T14:39:40.420Z,17.55
2024-01-07T14:42:07.150Z,16.83
2024-01-07T14:44:41.162Z,16.48
2024-01-07T14:47:15.862Z,15.57
2024-01-07T14:49:42.833Z,14.98
2024-01-07T14:52:09.481Z,15.10
2024-01-07T14:54:38.285Z,15.18
2024-01-07T14:57:05.625Z,15.63
2024-01-07T14:59:32.289Z,17.17
2024-01-07T15:02:00.330Z,18.02
2024-01-07T15:04:27.294Z,18.88
2024-01-07T15:06:54.016Z,18.02
2024-01-07T15:09:22.403Z,19.20
2024-01-07T15:11:50.004Z,17.90
2024-01-07T15:14:16.762Z,19.65
2024-01-07T15:16:43.788Z,17.92
2024-01-07T15:19:10.482Z,17.42
2024-01-07T15:21:37.185Z,19.38
2024-01-07T15:24:04.014Z,18.88
2024-01-07T15:26:31.112Z,20.75
2024-01-07T15:28:59.017Z,21.40
2024-01-07T15:31:25.700Z,19.55
2024-01-07T15:33:52.388Z,19.95
2024-01-07T15:36:19.208Z,21.30
2024-01-07T15:38:45.781Z,20.48
2024-01-07T15:41:12.420Z,24.05
2024-01-07T15:43:39.166Z,24.70
2024-01-07T15:46:06.121Z,23.38
2024-01-07T15:48:32.803Z,25.35
2024-01-07T15:51:02.609Z,23.45
2024-01-07T15:53:33.101Z,27.15
2024-01-07T15:56:04.182Z,26.83
2024-01-07T15:58:34.697Z,29.13
2024-01-07T16:01:04.574Z,27.10
2024-01-07T16:03:32.430Z,29.42
2024-01-07T16:06:00.384Z,26.63
2024-01-07T16:08:29.280Z,28.25
2024-01-07T16:10:56.442Z,30.65
2024-01-07T16:13:23.115Z,30.63
2024-01-07T16:15:49.722Z,32.42
2024-01-07T16:18:17.631Z,31.15
2024-01-07T16:20:44.989Z,33.03
2024-01-07T16:23:12.319Z,30.00
2024-01-07T16:25:39.217Z,33.83
2024-01-07T16:28:08.097Z,35.13
2024-01-07T16:30:35.464Z,33.92
2024-01-07T16:33:03.264Z,34.92
2024-01-07T16:35:30.932Z,34.97
2024-01-07T16:37:57.546Z,36.35
2024-01-07T16:40:24.192Z,35.45
2024-01-07T16:42:50.993Z,32.88
2024-01-07T16:45:17.681Z,34.83
2024-01-07T16:47:44.262Z,35.70
2024-01-07T16:50:21.546Z,31.52
2024-01-07T16:52:51.305Z,33.03
2024-01-07T16:55:17.966Z,36.42
2024-01-07T16:57:44.709Z,36.20
2024-01-07T17:00:11.800Z,35.75
2024-01-07T17:02:38.390Z,38.00
2024-01-07T17:05:05.554Z,42.00
2024-01-07T17:07:32.260Z,42.03
2024-01-07T17:09:58.830Z,43.03
2024-01-07T17:12:25.402Z,45.25
2024-01-07T17:14:53.276Z,43.45
2024-01-07T17:17:25.679Z,45.45
2024-01-07T17:19:52.407Z,98.50
2024-01-07T17:22:19.063Z,93.03
2024-01-07T17:24:45.594Z,96.20
2024-01-07T17:27:12.214Z,93.28
2024-01-07T17:29:38.806Z,96.30
2024-01-07T17:32:05.949Z,87.55
2024-01-07T17:34:32.651Z,87.90
2024-01-07T17:37:00.430Z,79.03
2024-01-07T17:39:27.007Z,80.05
2024-01-07T17:41:53.597Z,75.05
2024-01-07T17:44:20.168Z,75.72
2024-01-07T17:46:46.787Z,72.13
2024-01-07T17:49:13.501Z,72.05
2024-01-07T17:51:44.893Z,68.45
2024-01-07T17:54:13.024Z,66.88
2024-01-07T17:56:39.650Z,63.63
2024-01-07T17:59:08.277Z,64.70
2024-01-07T18:01:34.896Z,61.53
2024-01-07T18:04:01.550Z,65.90
2024-01-07T18:06:28.174Z,60.03
2024-01-07T18:08:54.891Z,58.33
2024-01-07T18:11:21.722Z,56.75
2024-01-07T18:13:49.068Z,54.95
2024-01-07T18:16:15.797Z,59.17
2024-01-07T18:18:42.700Z,59.50
2024-01-07T18:21:09.825Z,61.15
2024-01-07T18:23:36.397Z,65.45
2024-01-07T18:26:03.005Z,61.60
2024-01-07T18:28:29.635Z,67.72
2024-01-07T18:30:56.354Z,67.50
2024-01-07T18:33:24.607Z,71.85
2024-01-07T18:35:51.535Z,64.80
2024-01-07T18:38:18.300Z,66.35
2024-01-07T18:40:45.047Z,66.88
2024-01-07T18:43:11.795Z,65.13
2024-01-07T18:45:38.511Z,67.72
2024-01-07T18:48:06.969Z,66.32
2024-01-07T18:50:33.945Z,64.75
2024-01-07T18:53:01.096Z,63.17
2024-01-07T18:55:27.840Z,61.55
2024-01-07T18:57:54.429Z,59.53
2024-01-07T19:00:21.115Z,61.78
2024-01-07T19:02:47.715Z,55.97
2024-01-07T19:05:14.574Z,58.40
2024-01-07T19:07:42.249Z,59.30
2024-01-07T19:10:10.374Z,53.30
2024-01-07T19:12:37.125Z,51.50
2024-01-07T19:15:04.464Z,51.30
2024-01-07T19:17:31.381Z,52.25
2024-01-07T19:19:58.445Z,48.22
2024-01-07T19:22:25.056Z,52.85
2024-01-07T19:24:51.670Z,50.00
2024-01-07T19:27:18.499Z,46.13
2024-01-07T19:29:45.135Z,45.70
2024-01-07T19:32:11.767Z,42.08
2024-01-07T19:34:39.152Z,44.95
2024-01-07T19:37:05.786Z,41.25
2024-01-07T19:39:34.652Z,42.20
2024-01-07T19:42:01.988Z,38.75
2024-01-07T19:44:28.857Z,37.55
2024-01-07T19:46:55.887Z,35.88
2024-01-07T19:49:22.519Z,33.90
2024-01-07T19:51:51.181Z,37.97
2024-01-07T19:54:20.287Z,33.28
2024-01-07T19:56:47.012Z,36.50
2024-01-07T19:59:13.767Z,32.58
2024-01-07T20:01:40.366Z,32.70
2024-01-07T20:04:06.991Z,30.65
2024-01-07T20:06:33.607Z,32.35
2024-01-07T20:09:00.203Z,29.88
2024-01-07T20:11:27.029Z,29.85
2024-01-07T20:13:53.909Z,40.85
2024-01-07T20:16:21.459Z,28.38
2024-01-07T20:18:52.835Z,27.65
2024-01-07T20:21:24.319Z,28.13
2024-01-07T20:23:56.306Z,27.75
2024-01-07T20:26:23.534Z,34.90
2024-01-07T20:28:54.639Z,34.97
2024-01-07T20:31:22.121Z,41.63
2024-01-07T20:33:49.829Z,42.75
2024-01-07T20:36:16.736Z,44.70
2024-01-07T20:38:44.391Z,49.95
2024-01-07T20:41:12.480Z,56.13
2024-01-07T20:43:39.451Z,57.75
2024-01-07T20:46:07.056Z,57.90
2024-01-07T20:48:38.754Z,61.00
2024-01-07T20:51:08.699Z,64.40
2024-01-07T20:53:36.537Z,66.82
2024-01-07T20:56:03.508Z,62.55
2024-01-07T20:58:31.204Z,63.72
2024-01-07T21:01:00.097Z,63.05
2024-01-07T21:03:27.181Z,62.10
2024-01-07T21:05:54.468Z,61.97
2024-01-07T21:08:21.599Z,60.17
2024-01-07T21:10:48.642Z,65.93
2024-01-07T21:13:16.239Z,62.88
2024-01-07T21:15:42.906Z,62.80
2024-01-07T21:18:09.749Z,57.88
2024-01-07T21:20:36.794Z,57.38
2024-01-07T21:23:04.786Z,58.45
2024-01-07T21:25:33.340Z,54.30
2024-01-07T21:28:00.001Z,54.30
2024-01-07T21:30:27.049Z,50.72
2024-01-07T21:32:53.890Z,51.22
2024-01-07T21:35:20.624Z,50.60
2024-01-07T21:37:47.412Z,50.15
2024-01-07T21:40:23.642Z,47.88
2024-01-07T21:42:51.790Z,52.15
2024-01-07T21:45:19.905Z,47.03
2024-01-07T21:47:46.595Z,50.60
2024-01-07T21:50:13.875Z,44.78
2024-01-07T21:52:41.119Z,44.83
2024-01-07T21:55:08.208Z,46.95
2024-01-07T21:57:34.862Z,44.05
2024-01-07T22:00:01.449Z,44.85
2024-01-07T22:02:28.203Z,44.45
2024-01-07T22:04:55.114Z,43.85
2024-01-07T22:07:22.155Z,43.03
2024-01-07T22:09:49.173Z,43.47
2024-01-07T22:12:16.027Z,41.40
2024-01-07T22:14:42.881Z,40.92
2024-01-07T22:17:10.178Z,43.17
2024-01-07T22:19:38.839Z,42.40
2024-01-07T22:22:06.070Z,42.38
2024-01-07T22:24:32.668Z,39.75
2024-01-07T22:26:59.281Z,40.35
2024-01-07T22:29:26.084Z,39.58
2024-01-07T22:31:52.963Z,40.45
2024-01-07T22:34:19.711Z,37.45
2024-01-07T22:36:46.435Z,37.45
2024-01-07T22:39:13.239Z,38.08
2024-01-07T22:41:43.896Z,34.72
2024-01-07T22:44:11.687Z,35.50
2024-01-07T22:46:45.828Z,35.40
2024-01-07T22:49:13.983Z,35.50
2024-01-07T22:51:44.928Z,36.50
2024-01-07T22:54:11.731Z,34.95
2024-01-07T22:56:46.191Z,33.60
2024-01-07T22:59:14.883Z,33.35
2024-01-07T23:01:41.968Z,30.13
2024-01-07T23:04:09.261Z,30.83
2024-01-07T23:06:39.398Z,29.45
2024-01-07T23:09:07.004Z,30.00
2024-01-07T23:11:34.108Z,32.30
2024-01-07T23:14:01.030Z,28.45
2024-01-07T23:16:27.731Z,28.63
2024-01-07T23:18:54.519Z,27.95
2024-01-07T23:21:21.271Z,29.08
2024-01-07T23:23:48.063Z,26.70
2024-01-07T23:26:14.847Z,27.02
2024-01-07T23:28:41.503Z,28.17
2024-01-07T23:31:11.177Z,26.98
2024-01-07T23:33:38.195Z,25.35
2024-01-07T23:36:08.059Z,24.67
2024-01-07T23:38:36.468Z,27.08
2024-01-07T23:41:04.815Z,23.02
2024-01-07T23:43:32.159Z,25.30
2024-01-07T23:45:58.736Z,24.15
2024-01-07T23:48:26.477Z,24.77
2024-01-07T23:50:53.204Z,24.08
2024-01-07T23:53:19.816Z,22.40
2024-01-07T23:55:46.468Z,22.83
2024-01-07T23:58:13.082Z,22.92
